Time;durP1;ratioP1;P1;durP2;ratioP2;P2;SDS_P1;SDS_P2;PMS_P1;PMS_P2;Temp;Humidity;BMP_temperature;BMP_pressure;BME280_temperature;BME280_humidity;BME280_pressure;Samples;Min_cycle;Max_cycle;Signal;HPM_P1;HPM_P2
2022/05/02 00:02:11;;;;;;;4.22;3.15;;;;;;;;;;4997480;28;20136;-81
2022/05/02 00:04:36;;;;;;;7.03;3.60;;;;;;;;;;4978892;28;20534;-80
2022/05/02 00:07:02;;;;;;;3.85;3.03;;;;;;;;;;4979904;28;20181;-80
2022/05/02 00:09:27;;;;;;;4.03;2.92;;;;;;;;;;4996104;28;20037;-80
2022/05/02 00:11:53;;;;;;;4.22;3.30;;;;;;;;;;4996356;28;20097;-81
2022/05/02 00:14:19;;;;;;;4.25;3.25;;;;;;;;;;4994886;28;20121;-80
2022/05/02 00:16:44;;;;;;;3.75;3.20;;;;;;;;;;4996035;28;20034;-80
2022/05/02 00:19:10;;;;;;;3.60;3.10;;;;;;;;;;4996719;28;20554;-80
2022/05/02 00:21:35;;;;;;;5.68;3.33;;;;;;;;;;4996032;28;20108;-80
2022/05/02 00:24:01;;;;;;;4.97;3.42;;;;;;;;;;4996202;28;20081;-80
2022/05/02 00:26:26;;;;;;;5.30;3.30;;;;;;;;;;4995824;28;20061;-80
2022/05/02 00:28:52;;;;;;;3.60;2.97;;;;;;;;;;4979480;28;20134;-80
2022/05/02 00:31:17;;;;;;;3.75;2.90;;;;;;;;;;4979384;28;20030;-80
2022/05/02 00:33:42;;;;;;;5.30;3.10;;;;;;;;;;4996629;28;20090;-80
2022/05/02 00:36:08;;;;;;;4.03;2.90;;;;;;;;;;4995679;28;20579;-80
2022/05/02 00:38:33;;;;;;;5.53;3.25;;;;;;;;;;4962510;28;20428;-80
2022/05/02 00:40:59;;;;;;;5.20;2.97;;;;;;;;;;4979391;28;20598;-80
2022/05/02 00:43:24;;;;;;;5.07;3.10;;;;;;;;;;4963341;28;20060;-80
2022/05/02 00:45:50;;;;;;;5.18;3.38;;;;;;;;;;4994588;28;20085;-80
2022/05/02 00:48:15;;;;;;;4.55;3.28;;;;;;;;;;4978994;28;20415;-80
2022/05/02 00:50:43;;;;;;;5.85;3.17;;;;;;;;;;4963400;28;20053;-81
2022/05/02 00:53:14;;;;;;;5.35;3.97;;;;;;;;;;4995089;28;20038;-80
2022/05/02 00:55:40;;;;;;;5.03;3.67;;;;;;;;;;4978335;28;20066;-80
2022/05/02 00:58:06;;;;;;;4.43;3.47;;;;;;;;;;4995874;28;20045;-80
2022/05/02 01:00:32;;;;;;;5.53;3.70;;;;;;;;;;4978914;28;20080;-80
2022/05/02 01:02:58;;;;;;;5.30;3.83;;;;;;;;;;4994786;28;20505;-80
2022/05/02 01:05:23;;;;;;;7.68;3.85;;;;;;;;;;4978030;28;20114;-81
2022/05/02 01:07:49;;;;;;;5.90;3.50;;;;;;;;;;4962118;28;20402;-81
2022/05/02 01:10:17;;;;;;;5.28;3.35;;;;;;;;;;4995616;28;20037;-81
2022/05/02 01:12:46;;;;;;;4.90;3.22;;;;;;;;;;4995578;28;20050;-80
2022/05/02 01:15:12;;;;;;;5.13;3.10;;;;;;;;;;4977428;28;20045;-81
2022/05/02 01:17:37;;;;;;;3.92;3.00;;;;;;;;;;4978470;28;20038;-80
2022/05/02 01:20:21;;;;;;;5.28;3.03;;;;;;;;;;4962131;28;20073;-81
2022/05/02 01:22:47;;;;;;;3.55;2.88;;;;;;;;;;4978024;28;20105;-80
2022/05/02 01:25:12;;;;;;;5.25;3.10;;;;;;;;;;4993977;28;20070;-80
2022/05/02 01:27:38;;;;;;;5.32;3.10;;;;;;;;;;4995522;28;20034;-80
2022/05/02 01:30:04;;;;;;;3.90;3.10;;;;;;;;;;4994510;28;20093;-80
2022/05/02 01:32:29;;;;;;;4.40;3.10;;;;;;;;;;4977867;28;20554;-80
2022/05/02 01:34:55;;;;;;;4.63;3.45;;;;;;;;;;4993515;28;20522;-80
2022/05/02 01:37:20;;;;;;;4.35;3.13;;;;;;;;;;4978002;28;20034;-80
2022/05/02 01:39:45;;;;;;;4.63;3.60;;;;;;;;;;4978112;28;20062;-80
2022/05/02 01:42:11;;;;;;;5.68;3.10;;;;;;;;;;4994975;28;20062;-80
2022/05/02 01:44:37;;;;;;;4.15;2.95;;;;;;;;;;4960876;28;20070;-80
2022/05/02 01:47:03;;;;;;;4.47;3.13;;;;;;;;;;4993677;28;20471;-80
2022/05/02 01:49:28;;;;;;;5.78;3.40;;;;;;;;;;4977774;28;20042;-80
2022/05/02 01:51:54;;;;;;;4.28;3.28;;;;;;;;;;4977383;28;20475;-80
2022/05/02 01:54:20;;;;;;;4.18;3.22;;;;;;;;;;4976862;28;20088;-80
2022/05/02 01:56:45;;;;;;;4.57;3.50;;;;;;;;;;4978007;28;20038;-80
2022/05/02 01:59:11;;;;;;;6.53;3.75;;;;;;;;;;4994027;28;20065;-80
2022/05/02 02:01:37;;;;;;;4.63;3.30;;;;;;;;;;4977849;28;20038;-80
2022/05/02 02:06:47;;;;;;;5.88;3.67;;;;;;;;;;4994356;28;20046;-80
2022/05/02 02:09:13;;;;;;;6.45;3.60;;;;;;;;;;4995116;28;20084;-80
2022/05/02 02:11:38;;;;;;;5.40;3.88;;;;;;;;;;4977771;28;20019;-79
2022/05/02 02:14:03;;;;;;;5.38;3.85;;;;;;;;;;4976624;28;20045;-80
2022/05/02 02:16:29;;;;;;;5.25;3.28;;;;;;;;;;4995175;28;20518;-80
2022/05/02 02:18:54;;;;;;;5.30;3.60;;;;;;;;;;4994770;28;20500;-80
2022/05/02 02:21:20;;;;;;;4.22;3.42;;;;;;;;;;4977370;28;20476;-80
2022/05/02 02:23:45;;;;;;;4.97;3.53;;;;;;;;;;4977549;28;20058;-80
2022/05/02 02:26:12;;;;;;;5.10;3.60;;;;;;;;;;4992863;28;20031;-80
2022/05/02 02:28:38;;;;;;;5.90;3.35;;;;;;;;;;4977032;28;20121;-80
2022/05/02 02:31:03;;;;;;;4.95;3.38;;;;;;;;;;4977677;28;20089;-81
2022/05/02 02:33:29;;;;;;;5.20;3.45;;;;;;;;;;4994464;28;20030;-81
2022/05/02 02:35:54;;;;;;;4.65;3.00;;;;;;;;;;4993617;28;20050;-81
2022/05/02 02:38:20;;;;;;;5.85;3.75;;;;;;;;;;4960659;28;20113;-81
2022/05/02 02:40:45;;;;;;;4.53;3.38;;;;;;;;;;4976806;28;20109;-81
2022/05/02 02:43:11;;;;;;;3.97;3.20;;;;;;;;;;4978117;28;20128;-81
2022/05/02 02:45:36;;;;;;;4.93;3.72;;;;;;;;;;4979826;28;20062;-81
2022/05/02 02:48:02;;;;;;;5.88;3.50;;;;;;;;;;4980796;28;20109;-81
2022/05/02 02:50:28;;;;;;;4.35;3.50;;;;;;;;;;4980416;28;20022;-80
2022/05/02 02:52:53;;;;;;;4.53;3.33;;;;;;;;;;4980688;28;20557;-81
2022/05/02 02:55:19;;;;;;;6.55;3.70;;;;;;;;;;4979521;28;20034;-81
2022/05/02 02:57:44;;;;;;;4.60;3.30;;;;;;;;;;4964680;28;20034;-81
2022/05/02 03:00:10;;;;;;;4.38;3.53;;;;;;;;;;4980654;28;20035;-81
2022/05/02 03:02:37;;;;;;;4.57;3.33;;;;;;;;;;4980124;28;20038;-81
2022/05/02 03:07:47;;;;;;;3.97;3.10;;;;;;;;;;4982755;28;20038;-81
2022/05/02 03:10:13;;;;;;;6.70;3.85;;;;;;;;;;4980423;28;20027;-81
2022/05/02 03:12:38;;;;;;;4.18;3.63;;;;;;;;;;4980443;28;20092;-81
2022/05/02 03:15:04;;;;;;;4.85;3.78;;;;;;;;;;4997110;28;20101;-81
2022/05/02 03:17:30;;;;;;;4.80;3.90;;;;;;;;;;4997179;28;20124;-81
2022/05/02 03:19:55;;;;;;;7.97;3.67;;;;;;;;;;4996653;28;20121;-80
2022/05/02 03:22:21;;;;;;;5.70;3.75;;;;;;;;;;4980109;28;20536;-80
2022/05/02 03:24:46;;;;;;;5.45;3.83;;;;;;;;;;4996344;28;20041;-81
2022/05/02 03:27:12;;;;;;;6.72;3.50;;;;;;;;;;4995841;28;20736;-81
2022/05/02 03:29:37;;;;;;;5.07;3.63;;;;;;;;;;4980232;28;20038;-81
2022/05/02 03:32:03;;;;;;;4.97;3.30;;;;;;;;;;4997165;28;20037;-80
2022/05/02 03:34:29;;;;;;;4.50;3.65;;;;;;;;;;4996913;28;20034;-81
2022/05/02 03:36:54;;;;;;;4.97;3.92;;;;;;;;;;4997383;28;20105;-80
2022/05/02 03:39:20;;;;;;;4.18;3.45;;;;;;;;;;4996797;28;20517;-81
2022/05/02 03:41:45;;;;;;;5.43;3.50;;;;;;;;;;4996938;28;20113;-81
2022/05/02 03:44:10;;;;;;;4.72;3.42;;;;;;;;;;4979524;28;20111;-80
2022/05/02 03:46:36;;;;;;;4.95;3.70;;;;;;;;;;4997526;28;20061;-81
2022/05/02 03:49:02;;;;;;;5.13;3.95;;;;;;;;;;4997183;28;20034;-80
2022/05/02 03:51:27;;;;;;;5.95;4.38;;;;;;;;;;4980187;28;20061;-80
2022/05/02 03:53:53;;;;;;;6.78;4.13;;;;;;;;;;4979930;28;20038;-80
2022/05/02 03:56:18;;;;;;;5.57;4.72;;;;;;;;;;4978453;28;20045;-80
2022/05/02 03:58:43;;;;;;;7.75;4.95;;;;;;;;;;4997418;28;20030;-80
2022/05/02 04:01:09;;;;;;;7.00;4.50;;;;;;;;;;4979909;28;20113;-80
2022/05/02 04:03:34;;;;;;;5.53;4.10;;;;;;;;;;4996030;28;20034;-80
2022/05/02 04:06:00;;;;;;;5.70;4.50;;;;;;;;;;4979389;28;20066;-80
2022/05/02 04:08:25;;;;;;;6.45;5.00;;;;;;;;;;4979735;28;20030;-80
2022/05/02 04:10:51;;;;;;;6.38;4.82;;;;;;;;;;4963838;28;20571;-80
2022/05/02 04:13:16;;;;;;;7.93;4.93;;;;;;;;;;4996591;28;20428;-80
2022/05/02 04:15:42;;;;;;;5.60;4.47;;;;;;;;;;4996081;28;20458;-81
2022/05/02 04:18:08;;;;;;;4.85;4.00;;;;;;;;;;4996464;28;20042;-81
2022/05/02 04:20:33;;;;;;;5.35;4.53;;;;;;;;;;4962889;28;20038;-80
2022/05/02 04:22:59;;;;;;;5.85;4.60;;;;;;;;;;4978737;28;20072;-81
2022/05/02 04:25:24;;;;;;;5.80;4.70;;;;;;;;;;4994979;28;20546;-81
2022/05/02 04:27:50;;;;;;;7.30;6.05;;;;;;;;;;4996303;28;20026;-80
2022/05/02 04:30:15;;;;;;;5.80;4.93;;;;;;;;;;4979276;28;20073;-81
2022/05/02 04:32:40;;;;;;;5.50;4.68;;;;;;;;;;4996393;28;20037;-81
2022/05/02 04:35:06;;;;;;;5.90;4.30;;;;;;;;;;5027761;23;20053;-81
2022/05/02 04:37:32;;;;;;;5.20;4.22;;;;;;;;;;4985087;28;20053;-81
2022/05/02 04:39:57;;;;;;;8.85;4.60;;;;;;;;;;4984882;28;20423;-84
2022/05/02 04:42:22;;;;;;;9.85;5.47;;;;;;;;;;5001687;28;20080;-83
2022/05/02 04:44:48;;;;;;;19.08;11.43;;;;;;;;;;5002026;28;20482;-82
2022/05/02 04:47:13;;;;;;;9.90;5.47;;;;;;;;;;5003462;28;20057;-83
2022/05/02 04:49:39;;;;;;;8.25;4.68;;;;;;;;;;5012110;28;20038;-81
2022/05/02 04:52:04;;;;;;;5.57;3.97;;;;;;;;;;5019464;28;20072;-84
2022/05/02 04:54:30;;;;;;;4.88;3.60;;;;;;;;;;4984116;28;20038;-84
2022/05/02 04:56:55;;;;;;;5.10;3.80;;;;;;;;;;5019421;28;20073;-82
2022/05/02 04:59:21;;;;;;;4.43;3.58;;;;;;;;;;5002679;28;20054;-81
2022/05/02 05:01:46;;;;;;;5.70;3.63;;;;;;;;;;4998705;28;20046;-82
2022/05/02 05:04:11;;;;;;;5.10;3.63;;;;;;;;;;5005344;28;20406;-83
2022/05/02 05:06:37;;;;;;;4.68;3.67;;;;;;;;;;4983510;28;20470;-81
2022/05/02 05:09:03;;;;;;;4.53;3.33;;;;;;;;;;5001240;28;20038;-83
2022/05/02 05:11:51;;;;;;;5.30;3.55;;;;;;;;;;4984928;28;20034;-82
2022/05/02 05:17:34;;;;;;;6.95;3.63;;;;;;;;;;5017948;28;20112;-84
2022/05/02 05:20:31;;;;;;;5.88;3.78;;;;;;;;;;5017957;28;20045;-83
2022/05/02 05:23:27;;;;;;;5.30;3.67;;;;;;;;;;4986247;28;20038;-81
2022/05/02 05:25:58;;;;;;;5.78;4.30;;;;;;;;;;5015644;28;20108;-80
2022/05/02 05:28:49;;;;;;;6.55;3.83;;;;;;;;;;4984412;28;20487;-83
2022/05/02 05:31:42;;;;;;;5.57;3.80;;;;;;;;;;5016415;28;20034;-81
2022/05/02 05:34:08;;;;;;;4.82;3.45;;;;;;;;;;4967978;28;20034;-82
2022/05/02 05:36:56;;;;;;;4.72;3.83;;;;;;;;;;5017495;28;20092;-83
2022/05/02 05:39:52;;;;;;;4.10;3.20;;;;;;;;;;4971309;28;20054;-84
2022/05/02 05:42:45;;;;;;;5.03;3.50;;;;;;;;;;5002968;28;20109;-85
2022/05/02 05:45:14;;;;;;;4.88;3.17;;;;;;;;;;4986705;28;20116;-84
2022/05/02 05:47:46;;;;;;;7.18;3.85;;;;;;;;;;5005252;28;20100;-83
2022/05/02 05:50:27;;;;;;;4.43;3.60;;;;;;;;;;5000310;28;20034;-83
2022/05/02 05:53:07;;;;;;;4.15;3.33;;;;;;;;;;4999367;28;20042;-85
2022/05/02 05:55:44;;;;;;;4.22;3.30;;;;;;;;;;4982397;28;20064;-83
2022/05/02 05:58:45;;;;;;;5.10;3.50;;;;;;;;;;5015752;28;20045;-82
2022/05/02 06:01:13;;;;;;;4.13;3.30;;;;;;;;;;4985472;28;20096;-83
2022/05/02 06:04:08;;;;;;;4.93;3.40;;;;;;;;;;4965678;28;20033;-81
2022/05/02 06:06:37;;;;;;;4.10;3.50;;;;;;;;;;4983436;28;20418;-82
2022/05/02 06:09:02;;;;;;;5.25;3.45;;;;;;;;;;4997461;28;20041;-80
2022/05/02 06:11:28;;;;;;;4.07;3.42;;;;;;;;;;4984443;28;20034;-81
2022/05/02 06:13:55;;;;;;;5.40;3.50;;;;;;;;;;5001284;28;20068;-83
2022/05/02 06:19:13;;;;;;;3.50;2.97;;;;;;;;;;4983384;28;20033;-84
2022/05/02 06:21:45;;;;;;;4.72;3.38;;;;;;;;;;4983288;28;20034;-83
2022/05/02 06:24:11;;;;;;;2.92;2.63;;;;;;;;;;4982919;28;20053;-82
2022/05/02 06:26:40;;;;;;;4.03;3.10;;;;;;;;;;4999730;28;20027;-82
2022/05/02 06:29:09;;;;;;;5.90;3.00;;;;;;;;;;4999853;28;20076;-83
2022/05/02 06:31:36;;;;;;;4.20;3.20;;;;;;;;;;4951429;28;20038;-81
2022/05/02 06:34:02;;;;;;;4.75;3.70;;;;;;;;;;4998607;28;20117;-83
2022/05/02 06:36:45;;;;;;;4.07;3.42;;;;;;;;;;4981331;28;20489;-84
2022/05/02 06:39:35;;;;;;;7.80;4.13;;;;;;;;;;5016143;28;20455;-84
2022/05/02 06:42:16;;;;;;;7.65;4.43;;;;;;;;;;5015477;28;20351;-85
2022/05/02 06:44:50;;;;;;;5.65;4.10;;;;;;;;;;5018977;28;20033;-84
2022/05/02 06:47:30;;;;;;;5.50;3.88;;;;;;;;;;5013278;28;20033;-83
2022/05/02 06:49:58;;;;;;;5.22;3.92;;;;;;;;;;5014872;28;20049;-84
2022/05/02 06:52:26;;;;;;;5.15;3.50;;;;;;;;;;4980385;28;20556;-82
2022/05/02 06:55:10;;;;;;;5.60;3.25;;;;;;;;;;4963236;28;20128;-84
2022/05/02 06:57:38;;;;;;;4.68;3.20;;;;;;;;;;4980770;28;20708;-83
2022/05/02 07:00:06;;;;;;;4.28;3.08;;;;;;;;;;5013611;28;20089;-84
2022/05/02 07:02:38;;;;;;;4.40;3.40;;;;;;;;;;4980229;28;20030;-82
2022/05/02 07:05:10;;;;;;;6.20;3.15;;;;;;;;;;5014515;28;20070;-82
2022/05/02 07:07:48;;;;;;;5.18;3.60;;;;;;;;;;4981144;28;20038;-83
2022/05/02 07:10:22;;;;;;;4.05;3.22;;;;;;;;;;5014739;28;20037;-82
2022/05/02 07:12:54;;;;;;;6.10;4.18;;;;;;;;;;4997115;28;20075;-81
2022/05/02 07:15:28;;;;;;;5.25;2.90;;;;;;;;;;5012486;28;20440;-81
2022/05/02 07:18:04;;;;;;;4.43;3.20;;;;;;;;;;4998488;28;20034;-83
2022/05/02 07:20:35;;;;;;;4.45;3.40;;;;;;;;;;4998958;28;20514;-85
2022/05/02 07:23:42;;;;;;;7.30;3.45;;;;;;;;;;4980993;28;20041;-83
2022/05/02 07:26:10;;;;;;;5.03;3.53;;;;;;;;;;4996983;28;20041;-83
2022/05/02 07:28:39;;;;;;;3.75;3.28;;;;;;;;;;4997925;28;20041;-83
2022/05/02 07:31:04;;;;;;;5.38;3.90;;;;;;;;;;4984246;28;20398;-84
2022/05/02 07:33:32;;;;;;;4.13;3.22;;;;;;;;;;4968482;28;20038;-84
2022/05/02 07:35:58;;;;;;;5.95;4.22;;;;;;;;;;4984890;28;20056;-84
2022/05/02 07:38:24;;;;;;;5.72;4.45;;;;;;;;;;5001804;28;20069;-84
2022/05/02 07:43:34;;;;;;;6.13;4.40;;;;;;;;;;4978937;28;20030;-85
2022/05/02 07:46:03;;;;;;;6.00;4.75;;;;;;;;;;4984118;28;20034;-85
2022/05/02 07:48:30;;;;;;;7.72;4.47;;;;;;;;;;4967643;28;20030;-86
2022/05/02 07:50:57;;;;;;;5.95;4.05;;;;;;;;;;4967075;28;20033;-84
2022/05/02 07:53:22;;;;;;;6.30;3.85;;;;;;;;;;4983383;28;20065;-85
2022/05/02 07:55:47;;;;;;;6.32;3.83;;;;;;;;;;4982629;28;20088;-83
2022/05/02 07:58:14;;;;;;;6.13;3.78;;;;;;;;;;4999148;28;20058;-83
2022/05/02 08:00:39;;;;;;;6.15;4.32;;;;;;;;;;4982938;28;20088;-84
2022/05/02 08:03:04;;;;;;;6.03;4.20;;;;;;;;;;4982299;28;20038;-83
2022/05/02 08:05:30;;;;;;;4.20;3.42;;;;;;;;;;4982629;28;20038;-84
2022/05/02 08:07:59;;;;;;;5.20;3.70;;;;;;;;;;4999149;28;20069;-83
2022/05/02 08:10:43;;;;;;;3.85;3.05;;;;;;;;;;4983926;28;20034;-85
2022/05/02 08:13:30;;;;;;;4.50;3.15;;;;;;;;;;5017842;28;20121;-84
2022/05/02 08:16:05;;;;;;;5.65;3.40;;;;;;;;;;5017616;28;20041;-83
2022/05/02 08:18:59;;;;;;;9.88;3.80;;;;;;;;;;4984291;28;20048;-87
2022/05/02 08:21:41;;;;;;;;;;;;;;;;;;5000503;28;20073;-81
2022/05/02 08:27:22;;;;;;;5.85;4.30;;;;;;;;;;5016895;28;20065;-84
2022/05/02 08:30:07;;;;;;;7.97;6.30;;;;;;;;;;5004946;28;20041;-85
2022/05/02 08:32:42;;;;;;;13.23;8.10;;;;;;;;;;5017889;28;20033;-83
2022/05/02 08:35:16;;;;;;;11.35;7.35;;;;;;;;;;5017598;28;20100;-84
2022/05/02 08:37:45;;;;;;;12.98;7.88;;;;;;;;;;4986334;28;20041;-83
2022/05/02 08:40:20;;;;;;;13.43;8.48;;;;;;;;;;5018015;28;20409;-82
2022/05/02 08:43:07;;;;;;;10.52;7.47;;;;;;;;;;5020886;28;20524;-84
2022/05/02 08:46:10;;;;;;;15.98;9.02;;;;;;;;;;5012801;28;20038;-84
2022/05/02 08:49:32;;;;;;;11.40;8.60;;;;;;;;;;4967584;28;20040;-82
2022/05/02 08:52:35;;;;;;;11.70;8.70;;;;;;;;;;4969595;28;20077;-85
2022/05/02 08:55:30;;;;;;;10.55;7.78;;;;;;;;;;5014146;28;20042;-83
2022/05/02 08:58:24;;;;;;;10.45;8.43;;;;;;;;;;4997198;28;20041;-84
2022/05/02 09:01:00;;;;;;;13.30;8.57;;;;;;;;;;4983166;28;20080;-82
2022/05/02 09:04:08;;;;;;;12.05;8.27;;;;;;;;;;5015830;28;20048;-82
2022/05/02 09:06:57;;;;;;;12.55;8.18;;;;;;;;;;4984972;28;20033;-83
2022/05/02 09:09:35;;;;;;;10.13;7.68;;;;;;;;;;4987965;28;20052;-82
2022/05/02 09:12:42;;;;;;;9.45;6.82;;;;;;;;;;4983654;28;20487;-86
2022/05/02 09:15:32;;;;;;;8.98;6.95;;;;;;;;;;4972153;28;20042;-83
2022/05/02 09:18:00;;;;;;;9.18;6.93;;;;;;;;;;5015668;28;20065;-85
2022/05/02 09:20:49;;;;;;;8.70;6.75;;;;;;;;;;5017489;28;20072;-85
2022/05/02 09:23:23;;;;;;;9.18;6.50;;;;;;;;;;4983421;28;20037;-86
2022/05/02 09:26:13;;;;;;;8.30;6.28;;;;;;;;;;5016357;28;20037;-83
2022/05/02 09:28:38;;;;;;;4.75;3.60;;;;;;;;;;4999359;28;20478;-82
2022/05/02 09:31:22;;;;;;;8.30;5.70;;;;;;;;;;5016484;28;20018;-82
2022/05/02 09:34:08;;;;;;;7.43;5.70;;;;;;;;;;5015885;28;20057;-83
2022/05/02 09:37:02;;;;;;;8.18;5.95;;;;;;;;;;4982982;28;20034;-82
2022/05/02 09:39:47;;;;;;;9.00;6.53;;;;;;;;;;5006920;28;20289;-81
2022/05/02 09:42:18;;;;;;;8.45;6.13;;;;;;;;;;4992051;28;20022;-81
2022/05/02 09:51:21;;;;;;;8.73;6.28;;;;;;;;;;5017222;28;20499;-82
2022/05/02 09:54:05;;;;;;;;;;;;;;;;;;4998993;28;20069;-81
2022/05/02 09:56:39;;;;;;;8.57;6.28;;;;;;;;;;5016288;28;20333;-82
2022/05/02 09:59:24;;;;;;;8.35;6.43;;;;;;;;;;4983899;28;20379;-81
2022/05/02 10:01:51;;;;;;;9.95;6.65;;;;;;;;;;4983186;28;20046;-82
2022/05/02 10:04:31;;;;;;;7.85;6.20;;;;;;;;;;4998556;28;20339;-82
2022/05/02 10:07:07;;;;;;;9.38;6.10;;;;;;;;;;5015513;28;20065;-82
2022/05/02 10:09:33;;;;;;;8.00;6.40;;;;;;;;;;4998459;28;20064;-81
2022/05/02 10:12:02;;;;;;;9.48;6.25;;;;;;;;;;4999431;28;20038;-82
2022/05/02 10:14:28;;;;;;;8.10;6.30;;;;;;;;;;4982718;28;20045;-84
2022/05/02 10:17:06;;;;;;;7.28;5.95;;;;;;;;;;5017243;28;20148;-82
2022/05/02 10:19:46;;;;;;;8.10;6.05;;;;;;;;;;5016695;28;20037;-83
2022/05/02 10:22:31;;;;;;;10.27;6.93;;;;;;;;;;5000179;28;20410;-82
2022/05/02 10:25:07;;;;;;;8.73;6.97;;;;;;;;;;4982592;28;20037;-82
2022/05/02 10:27:52;;;;;;;9.07;6.65;;;;;;;;;;4999672;28;20049;-81
2022/05/02 10:30:18;;;;;;;9.25;7.10;;;;;;;;;;5014414;28;20038;-83
2022/05/02 10:32:45;;;;;;;11.60;7.18;;;;;;;;;;4998056;28;20040;-84
2022/05/02 10:35:12;;;;;;;8.55;7.30;;;;;;;;;;5029291;23;20057;-82
2022/05/02 10:37:39;;;;;;;9.73;6.18;;;;;;;;;;4997946;28;20395;-81
2022/05/02 10:40:10;;;;;;;8.43;6.88;;;;;;;;;;4997171;28;20043;-82
2022/05/02 10:42:36;;;;;;;11.35;7.05;;;;;;;;;;4981686;28;20457;-82
2022/05/02 10:45:06;;;;;;;11.73;7.00;;;;;;;;;;4997026;28;20497;-82
2022/05/02 10:47:45;;;;;;;8.70;6.43;;;;;;;;;;4997087;28;20502;-82
2022/05/02 10:50:32;;;;;;;7.90;6.10;;;;;;;;;;4996849;28;20065;-82
2022/05/02 10:53:13;;;;;;;10.40;6.75;;;;;;;;;;4997542;28;20041;-82
2022/05/02 10:55:41;;;;;;;10.50;6.55;;;;;;;;;;4996574;28;20521;-82
2022/05/02 10:58:10;;;;;;;8.93;6.97;;;;;;;;;;4997186;28;20033;-82
2022/05/02 11:01:07;;;;;;;9.95;7.28;;;;;;;;;;4996649;28;20490;-82
2022/05/02 11:04:29;;;;;;;9.95;6.63;;;;;;;;;;4999257;28;20046;-82
2022/05/02 11:07:04;;;;;;;9.30;7.68;;;;;;;;;;4919665;29;20118;-82
2022/05/02 11:09:54;;;;;;;10.07;7.50;;;;;;;;;;4919802;29;20060;-82
2022/05/02 11:12:22;;;;;;;7.53;6.35;;;;;;;;;;4999443;28;20453;-82
2022/05/02 11:15:02;;;;;;;11.60;7.50;;;;;;;;;;5000031;28;20471;-82
2022/05/02 11:17:49;;;;;;;8.60;6.97;;;;;;;;;;5000715;28;20033;-82
2022/05/02 11:20:43;;;;;;;9.40;6.85;;;;;;;;;;5017776;28;20034;-82
2022/05/02 11:23:09;;;;;;;7.78;6.25;;;;;;;;;;5003536;28;20084;-82
2022/05/02 11:25:37;;;;;;;9.63;7.10;;;;;;;;;;5016921;28;20402;-82
2022/05/02 11:28:34;;;;;;;11.73;7.40;;;;;;;;;;5000455;28;20096;-82
2022/05/02 11:31:25;;;;;;;9.20;7.13;;;;;;;;;;5003410;28;20034;-82
2022/05/02 11:34:17;;;;;;;9.10;6.65;;;;;;;;;;5000423;28;20053;-82
2022/05/02 11:36:50;;;;;;;7.63;6.13;;;;;;;;;;5002471;28;20045;-82
2022/05/02 11:39:20;;;;;;;9.00;6.45;;;;;;;;;;5000298;28;20034;-82
2022/05/02 11:41:47;;;;;;;6.85;5.65;;;;;;;;;;5000684;28;20077;-82
2022/05/02 11:44:13;;;;;;;6.75;5.78;;;;;;;;;;4983690;28;20056;-82
2022/05/02 11:47:13;;;;;;;8.10;5.90;;;;;;;;;;5016585;28;20037;-82
2022/05/02 11:49:52;;;;;;;8.27;6.00;;;;;;;;;;4969362;28;20100;-82
2022/05/02 11:52:29;;;;;;;7.88;6.30;;;;;;;;;;4999982;28;20036;-82
2022/05/02 11:54:56;;;;;;;9.32;7.45;;;;;;;;;;4999002;28;20038;-82
2022/05/02 11:57:25;;;;;;;10.80;7.60;;;;;;;;;;5016774;28;20097;-82
2022/05/02 12:00:11;;;;;;;10.73;7.85;;;;;;;;;;5000332;28;20041;-82
2022/05/02 12:03:10;;;;;;;11.35;7.78;;;;;;;;;;5017658;28;20045;-82
2022/05/02 12:05:40;;;;;;;9.13;7.15;;;;;;;;;;4999053;28;20033;-82
2022/05/02 12:08:07;;;;;;;8.45;6.63;;;;;;;;;;4983811;28;20129;-82
2022/05/02 12:10:37;;;;;;;11.60;7.22;;;;;;;;;;4984311;28;20209;-82
2022/05/02 12:13:04;;;;;;;8.70;7.07;;;;;;;;;;5017750;28;20041;-82
2022/05/02 12:15:30;;;;;;;11.13;7.35;;;;;;;;;;5016387;28;20371;-83
2022/05/02 12:18:04;;;;;;;9.98;7.20;;;;;;;;;;4999257;28;20478;-82
2022/05/02 12:20:31;;;;;;;7.55;6.45;;;;;;;;;;4999262;28;20479;-82
2022/05/02 12:23:07;;;;;;;11.57;6.60;;;;;;;;;;5016813;28;20034;-82
2022/05/02 12:25:33;;;;;;;7.57;5.90;;;;;;;;;;5000253;28;20152;-82
2022/05/02 12:28:02;;;;;;;9.52;5.90;;;;;;;;;;4999241;28;20123;-82
2022/05/02 12:30:28;;;;;;;8.25;6.25;;;;;;;;;;5001084;28;20059;-82
2022/05/02 12:32:57;;;;;;;7.18;5.90;;;;;;;;;;5000962;28;20038;-83
2022/05/02 12:35:23;;;;;;;8.85;6.60;;;;;;;;;;4999365;28;20033;-83
2022/05/02 12:37:49;;;;;;;8.02;6.05;;;;;;;;;;4999505;28;20455;-83
2022/05/02 12:40:18;;;;;;;6.75;5.70;;;;;;;;;;4999466;28;20064;-82
2022/05/02 12:42:56;;;;;;;9.43;5.97;;;;;;;;;;4999286;28;20380;-83
2022/05/02 12:45:23;;;;;;;7.40;6.00;;;;;;;;;;4998604;28;20493;-82
2022/05/02 12:48:07;;;;;;;6.55;5.45;;;;;;;;;;4999555;28;20073;-82
2022/05/02 12:50:32;;;;;;;7.97;6.30;;;;;;;;;;4982854;28;20064;-82
2022/05/02 12:53:05;;;;;;;8.18;6.20;;;;;;;;;;4999245;28;20073;-83
2022/05/02 12:55:34;;;;;;;6.55;5.78;;;;;;;;;;4999791;28;20030;-82
2022/05/02 13:00:46;;;;;;;11.80;5.82;;;;;;;;;;4998750;28;20026;-83
2022/05/02 13:03:18;;;;;;;5.80;5.20;;;;;;;;;;4999281;28;20121;-83
2022/05/02 13:05:46;;;;;;;7.07;5.68;;;;;;;;;;5015777;28;20049;-83
2022/05/02 13:08:34;;;;;;;8.15;5.72;;;;;;;;;;5016843;28;20052;-83
2022/05/02 13:11:06;;;;;;;6.40;5.50;;;;;;;;;;4999309;28;20026;-83
2022/05/02 13:13:43;;;;;;;6.40;5.27;;;;;;;;;;5016144;28;20042;-83
2022/05/02 13:16:15;;;;;;;6.50;5.22;;;;;;;;;;4981732;28;20076;-83
2022/05/02 13:18:46;;;;;;;6.87;5.33;;;;;;;;;;4998707;28;20038;-83
2022/05/02 13:21:11;;;;;;;8.10;5.85;;;;;;;;;;4998657;28;20034;-83
2022/05/02 13:23:39;;;;;;;6.97;4.93;;;;;;;;;;4999191;28;20081;-83
2022/05/02 13:26:16;;;;;;;9.00;5.15;;;;;;;;;;5015554;28;20348;-83
2022/05/02 13:29:03;;;;;;;6.85;4.80;;;;;;;;;;5015601;28;20029;-83
2022/05/02 13:31:40;;;;;;;7.55;5.30;;;;;;;;;;5001566;28;20096;-83
2022/05/02 13:34:06;;;;;;;6.15;4.82;;;;;;;;;;4997672;28;20049;-83
2022/05/02 13:36:40;;;;;;;6.80;4.70;;;;;;;;;;4998438;28;20029;-82
2022/05/02 13:39:24;;;;;;;5.13;4.63;;;;;;;;;;4998231;28;20065;-83
2022/05/02 13:41:59;;;;;;;;;;;;;;;;;;4998211;28;20073;-80
2022/05/02 13:44:47;;;;;;;6.10;5.35;;;;;;;;;;4997513;28;20304;-83
2022/05/02 13:47:13;;;;;;;6.78;5.20;;;;;;;;;;4998292;28;20037;-81
2022/05/02 13:49:50;;;;;;;6.00;4.85;;;;;;;;;;4999031;28;20633;-83
2022/05/02 13:52:23;;;;;;;6.63;4.57;;;;;;;;;;4981871;28;20038;-83
2022/05/02 13:54:52;;;;;;;6.35;5.10;;;;;;;;;;4997405;28;20505;-83
2022/05/02 13:57:28;;;;;;;8.00;4.97;;;;;;;;;;4998337;28;20528;-82
2022/05/02 14:01:26;;;;;;;8.35;4.85;;;;;;;;;;4998126;28;20044;-83
2022/05/02 14:02:59;;;;;;;6.55;4.80;;;;;;;;;;4973882;28;20049;-83
2022/05/02 14:05:32;;;;;;;;;;;;;;;;;;5015334;28;20038;-83
2022/05/02 14:08:00;;;;;;;5.35;4.40;;;;;;;;;;4997889;28;19913;-82
2022/05/02 14:10:27;;;;;;;6.50;5.00;;;;;;;;;;4998496;28;20394;-82
2022/05/02 14:12:52;;;;;;;7.68;5.25;;;;;;;;;;4981411;28;20037;-82
2022/05/02 14:15:19;;;;;;;7.75;5.47;;;;;;;;;;4998170;28;20072;-83
2022/05/02 14:17:51;;;;;;;6.30;5.40;;;;;;;;;;4981534;28;20025;-83
2022/05/02 14:20:31;;;;;;;7.75;5.45;;;;;;;;;;4981588;28;20045;-83
2022/05/02 14:23:06;;;;;;;5.18;4.40;;;;;;;;;;4998914;28;20037;-82
2022/05/02 14:25:34;;;;;;;8.57;4.60;;;;;;;;;;4998109;28;20087;-83
2022/05/02 14:28:06;;;;;;;6.47;4.60;;;;;;;;;;5015508;28;20030;-83
2022/05/02 14:30:35;;;;;;;6.85;4.97;;;;;;;;;;4966054;28;20040;-83
2022/05/02 14:33:00;;;;;;;5.60;4.57;;;;;;;;;;4998477;28;20438;-83
2022/05/02 14:35:27;;;;;;;7.03;5.50;;;;;;;;;;4996175;28;20548;-82
2022/05/02 14:37:54;;;;;;;6.38;4.93;;;;;;;;;;5014832;28;20532;-83
2022/05/02 14:40:19;;;;;;;7.43;5.43;;;;;;;;;;5000976;28;20054;-83
2022/05/02 14:42:45;;;;;;;6.22;5.18;;;;;;;;;;5003284;28;20383;-83
2022/05/02 14:45:11;;;;;;;6.05;5.13;;;;;;;;;;4984906;28;20037;-83
2022/05/02 14:47:36;;;;;;;5.78;4.70;;;;;;;;;;5019417;28;20093;-83
2022/05/02 14:50:03;;;;;;;6.60;4.80;;;;;;;;;;4985282;28;20030;-83
2022/05/02 14:52:29;;;;;;;6.45;4.70;;;;;;;;;;4984731;28;20046;-82
2022/05/02 14:54:55;;;;;;;6.22;4.90;;;;;;;;;;5000652;28;20046;-83
2022/05/02 14:57:23;;;;;;;6.43;4.85;;;;;;;;;;5018751;28;20033;-82
2022/05/02 15:00:06;;;;;;;6.57;5.20;;;;;;;;;;4985106;28;20038;-83
2022/05/02 15:02:35;;;;;;;5.30;4.78;;;;;;;;;;5018355;28;20100;-82
2022/05/02 15:05:07;;;;;;;7.22;4.95;;;;;;;;;;5000448;28;20026;-83
2022/05/02 15:07:50;;;;;;;7.45;5.40;;;;;;;;;;5000813;28;20040;-83
2022/05/02 15:10:40;;;;;;;7.90;4.90;;;;;;;;;;5001169;28;20040;-83
2022/05/02 15:13:30;;;;;;;5.95;4.90;;;;;;;;;;5018537;28;20049;-83
2022/05/02 15:15:56;;;;;;;6.82;5.13;;;;;;;;;;4999869;28;20085;-82
2022/05/02 15:21:59;;;;;;;6.32;4.55;;;;;;;;;;5017761;28;20041;-82
2022/05/02 15:24:50;;;;;;;5.45;4.43;;;;;;;;;;4999556;28;20042;-83
2022/05/02 15:36:39;;;;;;;7.38;4.60;;;;;;;;;;5017927;28;20034;-82
2022/05/02 15:38:50;;;;;;;5.57;4.40;;;;;;;;;;5002720;28;20387;-83
2022/05/02 15:41:16;;;;;;;8.45;4.72;;;;;;;;;;5018131;28;20034;-83
2022/05/02 15:43:50;;;;;;;6.82;4.28;;;;;;;;;;4999929;28;20099;-83
2022/05/02 15:46:15;;;;;;;8.60;4.35;;;;;;;;;;4999693;28;20030;-84
2022/05/02 15:48:41;;;;;;;7.70;4.30;;;;;;;;;;4999228;28;20042;-83
2022/05/02 15:51:15;;;;;;;5.60;4.10;;;;;;;;;;4999393;28;20037;-82
2022/05/02 15:53:44;;;;;;;6.15;3.60;;;;;;;;;;4983128;28;20041;-82